Time;durP1;ratioP1;P1;durP2;ratioP2;P2;SDS_P1;SDS_P2;PMS_P1;PMS_P2;Temp;Humidity;BMP_temperature;BMP_pressure;BME280_temperature;BME280_humidity;BME280_pressure;Samples;Min_cycle;Max_cycle;Signal;HPM_P1;HPM_P2
2022/01/14 00:00:51;;;;;;;43.58;27.67;;;1.30;99.90;;;;;;5027254;28;20212;-85
2022/01/14 00:03:18;;;;;;;36.03;26.35;;;1.40;99.90;;;;;;5026574;28;20234;-86
2022/01/14 00:05:44;;;;;;;34.70;25.30;;;1.40;99.90;;;;;;5024887;28;20196;-86
2022/01/14 00:08:11;;;;;;;39.35;27.92;;;1.40;99.90;;;;;;5018935;28;20203;-86
2022/01/14 00:10:40;;;;;;;44.05;28.55;;;1.40;99.90;;;;;;5017835;28;20235;-86
2022/01/14 00:13:26;;;;;;;47.85;30.83;;;1.40;99.90;;;;;;5019759;28;20220;-85
2022/01/14 00:15:53;;;;;;;32.15;26.05;;;1.40;99.90;;;;;;5018539;28;20206;-86
2022/01/14 00:18:19;;;;;;;48.58;31.02;;;1.50;99.90;;;;;;5017228;28;20196;-85
2022/01/14 00:20:46;;;;;;;34.58;28.40;;;1.50;99.90;;;;;;5033651;28;20196;-84
2022/01/14 00:23:13;;;;;;;42.53;28.27;;;1.50;99.90;;;;;;5026303;28;20247;-85
2022/01/14 00:31:42;;;;;;;42.08;31.63;;;1.50;99.90;;;;;;4968666;28;20218;-86
2022/01/14 00:34:10;;;;;;;40.17;27.55;;;1.50;99.90;;;;;;5010863;28;20593;-85
2022/01/14 00:36:36;;;;;;;36.33;27.90;;;1.50;99.90;;;;;;5013771;28;20196;-86
2022/01/14 00:39:03;;;;;;;40.25;29.65;;;1.50;99.90;;;;;;5020838;28;20207;-84
2022/01/14 00:41:30;;;;;;;40.17;28.30;;;1.50;99.90;;;;;;5010177;28;20204;-85
2022/01/14 00:44:01;;;;;;;41.72;30.73;;;1.50;99.90;;;;;;5011239;28;20219;-85
2022/01/14 00:46:28;;;;;;;38.50;26.67;;;1.40;99.90;;;;;;4978376;28;20308;-84
2022/01/14 00:48:56;;;;;;;40.00;27.75;;;1.40;99.90;;;;;;4996593;28;20218;-86
2022/01/14 00:51:22;;;;;;;41.42;30.00;;;1.40;99.90;;;;;;5014947;28;20204;-85
2022/01/14 00:53:49;;;;;;;43.97;29.42;;;1.30;99.90;;;;;;5015163;28;20199;-86
2022/01/14 00:56:26;;;;;;;41.88;31.35;;;1.30;99.90;;;;;;5014261;28;20286;-85
2022/01/14 01:01:39;;;;;;;44.65;30.35;;;1.30;99.90;;;;;;5014810;28;20223;-85
2022/01/14 01:04:06;;;;;;;36.88;29.42;;;1.20;99.90;;;;;;5013611;28;20220;-86
2022/01/14 01:06:33;;;;;;;38.75;30.48;;;1.30;99.90;;;;;;5015359;28;20314;-84
2022/01/14 01:09:00;;;;;;;40.05;29.58;;;1.20;99.90;;;;;;5020055;28;20206;-86
2022/01/14 01:11:32;;;;;;;38.30;28.25;;;1.20;99.90;;;;;;5015155;28;20208;-85
2022/01/14 01:14:04;;;;;;;41.22;28.75;;;1.10;99.90;;;;;;5015867;28;20847;-86
2022/01/14 01:16:31;;;;;;;37.40;29.00;;;1.20;99.90;;;;;;5028905;28;20203;-84
2022/01/14 01:18:59;;;;;;;36.60;28.38;;;1.10;99.90;;;;;;5035480;28;20179;-86
2022/01/14 01:21:26;;;;;;;41.80;30.77;;;1.10;99.90;;;;;;5017609;28;20301;-85
2022/01/14 01:39:22;;;;;;;37.55;26.15;;;1.00;99.90;;;;;;5648361;23;20219;-89
2022/01/14 02:00:58;;;;;;;38.25;29.90;;;0.90;99.90;;;;;;5007396;28;20204;-91
2022/01/14 02:06:31;;;;;;;46.42;31.27;;;0.80;99.90;;;;;;5010830;28;20219;-90
2022/01/14 02:08:58;;;;;;;45.03;33.20;;;0.90;99.90;;;;;;5008998;28;20322;-91
2022/01/14 02:11:31;;;;;;;40.78;30.75;;;0.90;99.90;;;;;;5007899;28;20195;-91
2022/01/14 02:14:01;;;;;;;48.60;32.22;;;0.90;99.90;;;;;;5014562;28;20221;-91
2022/01/14 02:16:34;;;;;;;49.60;32.97;;;0.90;99.90;;;;;;5020812;28;20203;-91
2022/01/14 02:19:16;;;;;;;46.30;32.45;;;0.90;99.90;;;;;;5017452;28;20638;-90
2022/01/14 02:24:54;;;;;;;43.47;32.20;;;0.80;99.90;;;;;;5020249;28;20226;-91
2022/01/14 02:27:21;;;;;;;44.80;32.45;;;0.80;99.90;;;;;;5026780;28;20271;-90
2022/01/14 02:29:48;;;;;;;43.38;30.65;;;0.80;99.90;;;;;;5019313;28;20274;-91
2022/01/14 02:32:15;;;;;;;49.78;32.00;;;0.80;99.90;;;;;;5016501;28;20249;-91
2022/01/14 02:34:42;;;;;;;41.25;29.80;;;0.80;99.90;;;;;;5026413;28;20263;-91
2022/01/14 02:37:11;;;;;;;46.05;33.28;;;0.80;99.90;;;;;;5018719;28;20191;-91
2022/01/14 02:39:39;;;;;;;48.30;32.97;;;0.80;99.90;;;;;;4976570;28;20205;-91
2022/01/14 02:42:06;;;;;;;47.63;31.60;;;0.90;99.90;;;;;;4993052;28;20292;-91
2022/01/14 02:44:33;;;;;;;44.78;32.60;;;0.80;99.90;;;;;;5014323;28;20291;-92
2022/01/14 02:47:05;;;;;;;43.17;31.95;;;0.80;99.90;;;;;;5015928;28;20215;-91
2022/01/14 02:49:34;;;;;;;48.05;33.10;;;0.80;99.90;;;;;;5011951;28;20195;-91
2022/01/14 02:52:04;;;;;;;47.80;33.40;;;0.80;99.90;;;;;;5016602;28;20211;-92
2022/01/14 02:54:40;;;;;;;49.95;32.28;;;0.80;99.90;;;;;;5016522;28;20207;-91
2022/01/14 02:57:09;;;;;;;46.88;32.85;;;0.80;99.90;;;;;;5019732;28;20267;-90
2022/01/14 02:59:39;;;;;;;40.60;30.52;;;0.70;99.90;;;;;;5015013;28;20199;-91
2022/01/14 03:02:09;;;;;;;46.08;32.67;;;0.80;99.90;;;;;;5018191;28;20196;-91
2022/01/14 03:04:39;;;;;;;48.67;32.53;;;0.80;99.90;;;;;;5020371;28;20212;-91
2022/01/14 03:07:07;;;;;;;45.70;32.67;;;0.80;99.90;;;;;;5029588;28;20626;-92
2022/01/14 03:09:37;;;;;;;48.17;30.88;;;0.70;99.90;;;;;;5021190;28;20215;-91
2022/01/14 03:12:05;;;;;;;42.38;32.38;;;0.70;99.90;;;;;;5019959;28;20229;-91
2022/01/14 03:14:32;;;;;;;43.83;31.52;;;0.70;99.90;;;;;;5003043;28;20714;-91
2022/01/14 03:17:00;;;;;;;49.65;31.90;;;0.70;99.90;;;;;;5000798;28;20208;-91
2022/01/14 03:19:28;;;;;;;38.13;29.25;;;0.70;99.90;;;;;;5016390;28;20196;-90
2022/01/14 03:22:06;;;;;;;42.33;31.20;;;0.70;99.90;;;;;;5036482;28;20247;-92
2022/01/14 03:27:20;;;;;;;42.83;29.00;;;0.70;99.90;;;;;;5038964;28;20226;-91
2022/01/14 03:29:46;;;;;;;40.05;30.10;;;0.70;99.90;;;;;;5039275;28;20192;-91
2022/01/14 03:32:14;;;;;;;42.75;31.00;;;0.70;99.90;;;;;;5022866;28;20251;-91
2022/01/14 03:34:40;;;;;;;39.38;28.38;;;0.70;99.90;;;;;;5012710;28;20196;-90
2022/01/14 03:37:09;;;;;;;43.38;28.17;;;0.70;99.90;;;;;;5005326;28;20654;-91
2022/01/14 03:39:36;;;;;;;39.42;29.23;;;0.70;99.90;;;;;;5002229;28;20235;-90
2022/01/14 03:42:05;;;;;;;42.10;31.15;;;0.70;99.90;;;;;;5014783;28;20210;-91
2022/01/14 03:44:34;;;;;;;41.72;29.08;;;0.70;99.90;;;;;;5002801;28;20244;-91
2022/01/14 03:47:01;;;;;;;40.70;30.17;;;0.70;99.90;;;;;;5017007;28;20214;-91
2022/01/14 03:49:28;;;;;;;37.70;25.35;;;0.70;99.90;;;;;;5018217;28;20198;-91
2022/01/14 03:51:55;;;;;;;38.00;28.70;;;0.80;99.90;;;;;;5001795;28;20212;-91
2022/01/14 03:54:23;;;;;;;36.03;26.08;;;0.70;99.90;;;;;;5015163;28;20646;-91
2022/01/14 03:56:51;;;;;;;40.45;29.30;;;0.70;99.90;;;;;;5033576;28;20200;-91
2022/01/14 03:59:21;;;;;;;44.30;31.05;;;0.70;99.90;;;;;;5021149;28;20209;-91
2022/01/14 04:01:49;;;;;;;41.88;31.00;;;0.80;99.90;;;;;;5009129;28;20199;-90
2022/01/14 04:04:16;;;;;;;40.00;27.83;;;0.70;99.90;;;;;;5018807;28;20231;-91
2022/01/14 04:06:43;;;;;;;38.28;28.65;;;0.80;99.90;;;;;;5005707;28;20214;-91
2022/01/14 04:09:10;;;;;;;42.47;28.30;;;0.70;99.90;;;;;;5001869;28;20208;-91
2022/01/14 04:11:39;;;;;;;35.42;26.38;;;0.70;99.90;;;;;;5006707;28;20195;-90
2022/01/14 04:15:36;;;;;;;47.33;30.48;;;0.70;99.90;;;;;;5038379;28;20275;-91
2022/01/14 04:16:58;;;;;;;39.92;28.55;;;0.70;99.90;;;;;;5039808;28;20180;-92
2022/01/14 04:19:27;;;;;;;42.30;29.70;;;0.60;99.90;;;;;;5037216;28;20183;-91
2022/01/14 04:21:54;;;;;;;46.88;33.05;;;0.60;99.90;;;;;;5035242;28;20251;-93
2022/01/14 04:24:21;;;;;;;42.08;30.15;;;0.60;99.90;;;;;;5034626;28;20256;-90
2022/01/14 04:26:47;;;;;;;41.30;28.88;;;0.60;99.90;;;;;;5025239;28;20220;-91
2022/01/14 04:29:14;;;;;;;38.28;30.98;;;0.60;99.90;;;;;;5003077;28;20216;-91
2022/01/14 04:31:41;;;;;;;41.92;29.25;;;0.60;99.90;;;;;;5003166;28;20204;-91
2022/01/14 04:34:10;;;;;;;36.42;28.15;;;0.60;99.90;;;;;;5013570;28;20235;-91
2022/01/14 04:36:37;;;;;;;39.35;28.45;;;0.60;99.90;;;;;;5018162;28;20195;-90
2022/01/14 04:39:04;;;;;;;41.20;29.17;;;0.60;99.90;;;;;;5037709;28;20259;-91
2022/01/14 04:41:32;;;;;;;40.33;29.45;;;0.60;99.90;;;;;;5010085;28;20211;-91
2022/01/14 04:43:58;;;;;;;43.58;27.95;;;0.70;99.90;;;;;;5000649;28;20223;-91
2022/01/14 04:46:48;;;;;;;37.85;27.25;;;0.70;99.90;;;;;;5001805;28;20212;-91
2022/01/14 04:49:17;;;;;;;39.75;26.95;;;0.70;99.90;;;;;;5018661;28;20219;-90
2022/01/14 04:51:44;;;;;;;40.97;28.83;;;0.60;99.90;;;;;;5013644;28;20207;-91
2022/01/14 04:54:11;;;;;;;39.67;26.63;;;0.60;99.90;;;;;;5017379;28;20228;-91
2022/01/14 04:56:38;;;;;;;41.28;28.05;;;0.60;99.90;;;;;;4998680;28;20631;-91
2022/01/14 04:59:05;;;;;;;36.90;27.60;;;0.60;99.90;;;;;;5008358;28;20203;-91
2022/01/14 05:01:33;;;;;;;39.67;27.95;;;0.60;99.90;;;;;;5020377;28;20206;-91
2022/01/14 05:04:02;;;;;;;37.70;26.00;;;0.60;99.90;;;;;;5038493;28;20291;-91
2022/01/14 05:06:31;;;;;;;42.63;26.60;;;0.50;99.90;;;;;;5014942;28;20217;-91
2022/01/14 05:09:05;;;;;;;40.13;27.45;;;0.50;99.90;;;;;;5009599;28;20200;-93
2022/01/14 05:11:52;;;;;;;34.65;27.70;;;0.60;99.90;;;;;;5011120;28;20295;-91
2022/01/14 05:14:22;;;;;;;44.78;27.20;;;0.60;99.90;;;;;;5171309;23;20465;-91
2022/01/14 05:16:48;;;;;;;32.58;26.20;;;0.60;99.90;;;;;;5008998;28;20191;-90
2022/01/14 05:19:15;;;;;;;35.17;26.10;;;0.50;99.90;;;;;;5020621;28;20268;-90
2022/01/14 05:21:45;;;;;;;36.70;27.83;;;0.50;99.90;;;;;;5017964;28;20575;-90
2022/01/14 05:24:12;;;;;;;37.40;25.80;;;0.50;99.90;;;;;;5018916;28;20241;-90
2022/01/14 05:26:38;;;;;;;38.78;26.63;;;0.50;99.90;;;;;;5015634;28;20223;-90
2022/01/14 05:29:05;;;;;;;36.85;26.02;;;0.50;99.90;;;;;;5030498;28;20250;-91
2022/01/14 05:31:46;;;;;;;39.78;25.58;;;0.50;99.90;;;;;;5023097;28;20291;-89
2022/01/14 05:34:13;;;;;;;44.33;30.13;;;0.50;99.90;;;;;;5021919;28;20238;-90
2022/01/14 05:36:40;;;;;;;43.95;29.58;;;0.50;99.90;;;;;;4998492;28;20480;-80
2022/01/14 05:39:09;;;;;;;44.95;30.75;;;0.50;99.90;;;;;;4997680;28;20204;-79
2022/01/14 05:41:37;;;;;;;36.70;27.63;;;0.40;99.90;;;;;;5003532;28;20224;-86
2022/01/14 05:44:05;;;;;;;41.10;29.05;;;0.50;99.90;;;;;;4998809;28;20229;-90
2022/01/14 05:46:32;;;;;;;39.30;28.42;;;0.40;99.90;;;;;;5024410;28;20234;-92
2022/01/14 05:49:00;;;;;;;41.55;27.95;;;0.40;99.90;;;;;;5017195;28;20196;-91
2022/01/14 05:51:28;;;;;;;38.90;26.63;;;0.40;99.90;;;;;;5018189;28;20196;-93
2022/01/14 05:53:55;;;;;;;38.83;25.40;;;0.40;99.90;;;;;;5011231;28;20760;-90
2022/01/14 05:56:24;;;;;;;38.63;28.92;;;0.40;99.90;;;;;;5009234;28;20212;-91
2022/01/14 05:58:51;;;;;;;45.70;30.30;;;0.40;99.90;;;;;;5018229;28;20199;-90
2022/01/14 06:01:18;;;;;;;36.53;26.02;;;0.40;99.90;;;;;;5002601;28;20286;-92
2022/01/14 06:03:49;;;;;;;35.60;27.00;;;0.40;99.90;;;;;;4999160;28;20227;-91
2022/01/14 06:06:16;;;;;;;33.53;25.20;;;0.40;99.90;;;;;;5000966;28;20230;-91
2022/01/14 06:08:46;;;;;;;29.48;22.77;;;0.30;99.90;;;;;;5015537;28;20203;-91
2022/01/14 06:11:13;;;;;;;38.15;26.27;;;0.30;99.90;;;;;;5017955;28;20500;-90
2022/01/14 06:13:42;;;;;;;31.67;23.88;;;0.30;99.90;;;;;;5011572;28;20252;-90
2022/01/14 06:16:09;;;;;;;32.58;23.75;;;0.30;99.90;;;;;;5009184;28;20207;-90
2022/01/14 06:18:37;;;;;;;33.95;24.45;;;0.30;99.90;;;;;;5016021;28;20207;-91
2022/01/14 06:21:04;;;;;;;28.65;23.23;;;0.30;99.90;;;;;;5004543;28;20206;-90
2022/01/14 06:23:31;;;;;;;31.77;24.35;;;0.30;99.90;;;;;;5005161;28;20529;-91
2022/01/14 06:25:58;;;;;;;35.05;25.10;;;0.30;99.90;;;;;;5021576;28;20219;-91
2022/01/14 06:28:25;;;;;;;37.05;26.70;;;0.30;99.90;;;;;;5021366;28;20263;-90
2022/01/14 06:30:54;;;;;;;33.58;24.20;;;0.20;99.90;;;;;;5034325;28;20192;-92
2022/01/14 06:33:22;;;;;;;38.60;26.92;;;0.20;99.90;;;;;;5015297;28;20235;-90
2022/01/14 06:35:50;;;;;;;39.38;26.63;;;0.20;99.90;;;;;;5032968;28;20252;-91
2022/01/14 06:38:19;;;;;;;36.88;25.33;;;0.30;99.90;;;;;;5039794;28;20204;-93
2022/01/14 06:41:05;;;;;;;37.03;26.10;;;0.20;99.90;;;;;;5036784;28;20199;-91
2022/01/14 06:43:33;;;;;;;34.47;25.58;;;0.20;99.90;;;;;;5039469;28;20227;-92
2022/01/14 06:46:02;;;;;;;38.35;26.88;;;0.20;99.90;;;;;;5036579;28;20230;-91
2022/01/14 06:48:28;;;;;;;45.30;26.55;;;0.20;99.90;;;;;;5033056;28;20256;-89
2022/01/14 06:50:56;;;;;;;40.60;26.35;;;0.20;99.90;;;;;;5014995;28;20200;-88
2022/01/14 06:53:23;;;;;;;32.75;24.08;;;0.20;99.90;;;;;;5034476;28;20230;-89
2022/01/14 06:55:50;;;;;;;35.72;25.80;;;0.20;99.90;;;;;;5032336;28;20248;-88
2022/01/14 06:58:19;;;;;;;37.22;27.02;;;0.30;99.90;;;;;;5018250;28;20194;-90
2022/01/14 07:00:45;;;;;;;36.22;26.58;;;0.30;99.90;;;;;;5017115;28;20580;-89
2022/01/14 07:03:14;;;;;;;38.30;26.80;;;0.30;99.90;;;;;;5021789;28;20221;-89
2022/01/14 07:05:40;;;;;;;41.45;26.23;;;0.30;99.90;;;;;;5000978;28;20216;-89
2022/01/14 07:08:10;;;;;;;37.20;26.77;;;0.30;99.90;;;;;;5011806;28;20286;-89
2022/01/14 07:10:37;;;;;;;35.75;26.20;;;0.30;99.90;;;;;;5004349;28;20227;-90
2022/01/14 07:13:06;;;;;;;36.50;27.13;;;0.30;99.90;;;;;;5025729;28;20260;-91
2022/01/14 07:15:33;;;;;;;38.40;28.00;;;0.40;99.90;;;;;;5022928;28;20226;-90
2022/01/14 07:18:01;;;;;;;37.22;26.83;;;0.40;99.90;;;;;;5017741;28;20195;-87
2022/01/14 07:20:31;;;;;;;44.08;27.70;;;0.30;99.90;;;;;;5003146;28;20209;-88
2022/01/14 07:22:58;;;;;;;38.90;27.67;;;0.40;99.90;;;;;;5084663;22;20245;-86
2022/01/14 07:25:25;;;;;;;39.88;28.10;;;0.30;99.90;;;;;;4976461;28;20598;-88
2022/01/14 07:27:51;;;;;;;45.63;27.60;;;0.30;99.90;;;;;;4984867;28;20200;-87
2022/01/14 07:30:18;;;;;;;40.08;26.77;;;0.30;99.90;;;;;;4988627;28;20234;-84
2022/01/14 07:32:45;;;;;;;36.60;27.10;;;0.30;99.90;;;;;;4988271;28;20203;-83
2022/01/14 07:35:12;;;;;;;35.20;26.92;;;0.30;99.90;;;;;;4988306;28;20201;-84
2022/01/14 07:37:40;;;;;;;37.25;28.73;;;0.30;99.90;;;;;;4985168;28;20201;-84
2022/01/14 07:40:08;;;;;;;43.88;28.17;;;0.40;99.90;;;;;;4989436;28;20259;-85
2022/01/14 07:42:35;;;;;;;37.92;28.00;;;0.40;99.90;;;;;;4992788;28;20200;-85
2022/01/14 07:45:03;;;;;;;39.35;27.55;;;0.40;99.90;;;;;;4980269;28;20197;-85
2022/01/14 07:47:29;;;;;;;36.38;27.05;;;0.40;99.90;;;;;;4988652;28;20651;-85
2022/01/14 07:49:56;;;;;;;34.53;25.63;;;0.50;99.90;;;;;;4989862;28;20212;-85
2022/01/14 07:52:23;;;;;;;34.05;23.33;;;0.50;99.90;;;;;;4988372;28;20208;-85
2022/01/14 07:54:51;;;;;;;38.60;26.63;;;0.50;99.90;;;;;;4999600;28;20274;-84
2022/01/14 07:57:19;;;;;;;39.33;26.50;;;0.60;99.90;;;;;;5002583;28;20210;-84
2022/01/14 07:59:46;;;;;;;38.63;27.83;;;0.60;99.90;;;;;;5004613;28;20209;-84
2022/01/14 08:02:13;;;;;;;36.67;26.77;;;0.60;99.90;;;;;;5008252;28;20205;-85
2022/01/14 08:04:41;;;;;;;40.58;27.05;;;0.70;99.90;;;;;;5006506;28;20228;-84
2022/01/14 08:07:11;;;;;;;34.38;26.65;;;0.80;99.90;;;;;;5007004;28;20229;-85
2022/01/14 08:09:39;;;;;;;40.22;25.98;;;0.80;99.90;;;;;;5012253;28;20207;-82
2022/01/14 08:12:09;;;;;;;38.95;26.05;;;0.80;99.90;;;;;;5005604;28;20212;-84
2022/01/14 08:14:36;;;;;;;35.42;26.02;;;0.80;99.90;;;;;;5005515;28;20231;-85
2022/01/14 08:17:03;;;;;;;36.35;26.27;;;0.90;99.90;;;;;;5003743;28;20204;-89
2022/01/14 08:19:33;;;;;;;37.58;25.70;;;0.90;99.90;;;;;;5003382;28;20204;-84
2022/01/14 08:22:01;;;;;;;38.03;26.17;;;1.00;99.90;;;;;;5004377;28;20208;-86
2022/01/14 08:24:28;;;;;;;37.17;26.88;;;1.00;99.90;;;;;;4997536;28;20236;-86
2022/01/14 08:26:55;;;;;;;35.53;27.20;;;1.00;99.90;;;;;;4998472;28;20235;-86
2022/01/14 08:29:23;;;;;;;38.05;26.98;;;1.10;99.90;;;;;;5001530;28;20215;-86
2022/01/14 08:31:50;;;;;;;38.95;27.15;;;1.10;99.90;;;;;;4999376;28;20208;-84
2022/01/14 08:34:17;;;;;;;45.33;28.58;;;1.20;99.90;;;;;;4996665;28;20223;-84
2022/01/14 08:36:43;;;;;;;37.97;28.73;;;1.20;99.90;;;;;;4996789;28;20211;-85
2022/01/14 08:39:10;;;;;;;36.10;27.33;;;1.30;99.90;;;;;;4995700;28;20602;-86
2022/01/14 08:41:37;;;;;;;38.92;27.30;;;1.30;99.90;;;;;;4994654;28;20211;-84
2022/01/14 08:44:04;;;;;;;36.45;25.75;;;1.30;99.90;;;;;;4995199;28;20229;-84
2022/01/14 08:46:32;;;;;;;45.78;26.13;;;1.40;99.90;;;;;;5002723;28;20230;-84
2022/01/14 08:49:01;;;;;;;40.58;25.70;;;1.40;99.90;;;;;;4997690;28;20212;-85
2022/01/14 08:51:28;;;;;;;34.20;23.80;;;1.40;99.90;;;;;;4997871;28;20263;-85
2022/01/14 08:53:55;;;;;;;33.53;25.23;;;1.50;99.90;;;;;;5003290;28;20317;-85
2022/01/14 08:56:22;;;;;;;37.97;27.85;;;1.50;99.90;;;;;;4997654;28;20254;-85
2022/01/14 08:58:48;;;;;;;32.90;25.80;;;1.60;99.90;;;;;;4997182;28;20208;-83
2022/01/14 09:01:15;;;;;;;36.85;27.52;;;1.70;99.90;;;;;;4997638;28;20212;-84
2022/01/14 09:03:43;;;;;;;38.78;26.77;;;1.80;99.90;;;;;;4995730;28;20225;-85
2022/01/14 09:06:10;;;;;;;34.17;26.73;;;2.50;99.90;;;;;;4995977;28;20230;-84
2022/01/14 09:08:38;;;;;;;34.22;26.15;;;3.30;99.90;;;;;;4996683;28;20204;-85
2022/01/14 09:11:06;;;;;;;35.10;26.15;;;3.80;99.90;;;;;;5009478;28;20213;-85
2022/01/14 09:13:32;;;;;;;35.25;26.58;;;3.90;99.90;;;;;;5008014;28;20235;-87
2022/01/14 09:15:59;;;;;;;33.38;24.90;;;3.90;99.90;;;;;;5005719;28;20213;-85
2022/01/14 09:18:26;;;;;;;32.72;25.88;;;3.70;99.90;;;;;;5013082;28;20214;-86
2022/01/14 09:20:56;;;;;;;36.55;25.50;;;3.50;99.90;;;;;;5018679;28;20189;-84
2022/01/14 09:23:25;;;;;;;35.30;24.00;;;3.50;99.90;;;;;;5012284;28;20228;-86
2022/01/14 09:25:52;;;;;;;29.87;24.20;;;3.80;99.90;;;;;;5006719;28;20263;-85
2022/01/14 09:28:19;;;;;;;33.20;26.13;;;4.20;99.90;;;;;;5003144;28;20948;-84
2022/01/14 09:30:46;;;;;;;28.83;23.80;;;5.10;99.90;;;;;;5006962;28;20440;-85
2022/01/14 09:33:14;;;;;;;35.23;24.37;;;5.60;99.90;;;;;;5002919;28;20467;-85
2022/01/14 09:35:41;;;;;;;28.90;23.80;;;5.90;99.10;;;;;;4999830;28;20538;-86
2022/01/14 09:38:09;;;;;;;26.97;23.00;;;6.00;98.30;;;;;;5004555;28;20869;-85
2022/01/14 09:40:37;;;;;;;26.63;21.40;;;5.80;97.20;;;;;;5000081;28;20948;-85
2022/01/14 09:43:04;;;;;;;28.17;23.23;;;5.30;97.70;;;;;;5008410;28;20463;-84
2022/01/14 09:45:30;;;;;;;28.40;23.93;;;4.80;98.20;;;;;;5013848;28;20469;-84
2022/01/14 09:47:57;;;;;;;35.03;25.43;;;4.50;98.90;;;;;;5005363;28;20517;-85
2022/01/14 09:50:25;;;;;;;33.77;26.77;;;4.30;99.30;;;;;;4999672;28;20450;-90
2022/01/14 09:52:52;;;;;;;28.63;23.57;;;4.30;99.90;;;;;;5000085;28;20454;-85
2022/01/14 09:55:22;;;;;;;31.20;24.53;;;4.20;99.90;;;;;;4999732;28;20455;-85
2022/01/14 09:57:49;;;;;;;31.43;23.07;;;4.20;99.90;;;;;;4997486;28;20468;-85
2022/01/14 10:00:17;;;;;;;27.50;22.77;;;4.30;99.90;;;;;;5003405;28;20449;-84
2022/01/14 10:02:44;;;;;;;28.93;24.07;;;4.20;99.90;;;;;;5014034;28;20457;-87
2022/01/14 10:05:32;;;;;;;28.73;21.53;;;4.40;99.90;;;;;;4998101;28;20461;-86
2022/01/14 10:08:08;;;;;;;29.90;22.90;;;4.80;99.90;;;;;;4998388;28;20533;-86
2022/01/14 10:10:38;;;;;;;23.57;19.73;;;5.50;99.80;;;;;;4997888;28;20796;-85
2022/01/14 10:13:12;;;;;;;28.97;20.07;;;6.20;98.00;;;;;;4999688;28;20542;-86
2022/01/14 10:15:45;;;;;;;29.13;23.57;;;6.80;97.10;;;;;;4999344;28;20987;-86
2022/01/14 10:18:14;;;;;;;28.50;21.23;;;7.40;95.50;;;;;;4999630;28;20446;-85
2022/01/14 10:20:41;;;;;;;24.80;20.60;;;7.60;94.20;;;;;;4999270;28;20849;-84
2022/01/14 10:23:07;;;;;;;26.67;21.10;;;8.60;93.50;;;;;;4999858;28;20471;-86
2022/01/14 10:25:35;;;;;;;27.63;21.10;;;9.30;92.50;;;;;;4998731;28;20466;-86
2022/01/14 10:28:02;;;;;;;23.60;21.20;;;8.90;90.70;;;;;;4998187;28;20993;-86
2022/01/14 10:30:31;;;;;;;28.60;23.70;;;9.00;90.60;;;;;;4999175;28;20973;-85
2022/01/14 10:33:00;;;;;;;23.10;19.80;;;9.80;90.40;;;;;;4998055;28;20474;-85
2022/01/14 10:35:29;;;;;;;26.73;21.93;;;10.20;85.40;;;;;;4997398;28;20454;-86
2022/01/14 10:37:56;;;;;;;29.80;22.30;;;10.50;85.30;;;;;;4997568;28;20792;-86
2022/01/14 10:40:25;;;;;;;27.60;23.03;;;11.20;82.40;;;;;;4996721;28;20537;-84
2022/01/14 10:43:00;;;;;;;32.57;22.70;;;11.60;79.50;;;;;;5002659;28;20525;-86
2022/01/14 10:45:29;;;;;;;24.73;22.20;;;11.90;78.30;;;;;;4998459;28;20450;-85
2022/01/14 10:47:58;;;;;;;23.73;21.37;;;12.50;77.10;;;;;;5001708;28;20493;-86
2022/01/14 10:50:31;;;;;;;25.67;21.30;;;13.40;73.20;;;;;;4998309;28;20451;-86
2022/01/14 10:52:58;;;;;;;27.00;22.93;;;13.70;70.10;;;;;;4996992;28;20513;-86
2022/01/14 10:55:30;;;;;;;25.87;23.10;;;15.00;68.10;;;;;;4997870;28;20454;-87
2022/01/14 10:58:00;;;;;;;25.33;22.80;;;15.80;65.50;;;;;;5013283;28;20452;-87
2022/01/14 11:00:27;;;;;;;24.47;22.00;;;16.90;60.60;;;;;;4999914;28;20461;-87
2022/01/14 11:02:53;;;;;;;25.37;21.90;;;17.70;57.60;;;;;;4997864;28;20457;-86
2022/01/14 11:05:23;;;;;;;24.23;21.70;;;17.90;55.30;;;;;;4997938;28;20492;-86
2022/01/14 11:07:52;;;;;;;22.10;19.90;;;17.50;55.40;;;;;;4998124;28;20549;-87
2022/01/14 11:10:24;;;;;;;23.27;20.90;;;18.40;53.60;;;;;;4988757;28;20499;-93
2022/01/14 11:12:52;;;;;;;23.97;21.63;;;19.20;53.40;;;;;;4977889;28;20507;-87
2022/01/14 11:15:21;;;;;;;22.00;19.70;;;20.10;51.40;;;;;;4979745;28;20568;-89
2022/01/14 11:17:51;;;;;;;22.63;20.30;;;19.30;51.50;;;;;;4983854;28;20524;-87
2022/01/14 11:20:24;;;;;;;22.90;20.60;;;20.60;50.20;;;;;;4978926;28;20519;-87
2022/01/14 11:25:40;;;;;;;24.17;21.97;;;20.70;46.00;;;;;;4979654;28;20531;-87
2022/01/14 11:28:08;;;;;;;24.07;21.80;;;20.10;46.90;;;;;;4977750;28;21403;-91
2022/01/14 11:30:39;;;;;;;22.27;20.07;;;20.10;47.20;;;;;;4983486;28;20472;-88
2022/01/14 11:33:08;;;;;;;22.57;20.43;;;20.90;47.80;;;;;;4991077;28;20466;-86
2022/01/14 11:35:38;;;;;;;23.73;21.43;;;21.80;45.80;;;;;;5001917;28;20445;-87
2022/01/14 11:38:41;;;;;;;23.80;21.43;;;22.40;45.10;;;;;;5003110;28;20446;-86
2022/01/14 11:41:09;;;;;;;23.93;21.60;;;22.80;43.90;;;;;;4996227;28;20808;-86
2022/01/14 11:43:41;;;;;;;23.77;21.37;;;23.70;42.80;;;;;;4990776;28;20465;-86
2022/01/14 11:46:12;;;;;;;21.87;19.77;;;22.90;42.90;;;;;;4988096;28;20454;-86
2022/01/14 11:48:43;;;;;;;22.77;20.40;;;22.40;42.40;;;;;;4990655;28;20972;-85
2022/01/14 11:51:11;;;;;;;22.57;20.37;;;21.10;43.90;;;;;;4990654;28;20451;-87
2022/01/14 11:53:50;;;;;;;20.57;18.67;;;20.40;44.50;;;;;;4986829;28;20563;-86
2022/01/14 11:56:46;;;;;;;21.87;19.73;;;21.60;45.60;;;;;;4988802;28;20461;-85
2022/01/14 11:59:45;;;;;;;21.47;19.57;;;21.60;44.90;;;;;;4989073;28;20520;-86
2022/01/14 12:02:33;;;;;;;23.30;20.83;;;21.50;44.30;;;;;;4979342;28;20453;-85
2022/01/14 12:05:19;;;;;;;22.47;20.17;;;22.30;43.20;;;;;;4979532;28;20479;-85
2022/01/14 12:08:17;;;;;;;24.03;21.23;;;22.40;42.00;;;;;;4979824;28;20487;-85
2022/01/14 12:10:45;;;;;;;23.87;21.10;;;20.50;44.80;;;;;;4979969;28;20912;-85
2022/01/14 12:13:26;;;;;;;20.70;18.70;;;20.50;45.40;;;;;;4984054;28;20465;-86
2022/01/14 12:15:59;;;;;;;22.63;20.37;;;21.00;44.10;;;;;;4979952;28;20805;-86
2022/01/14 12:19:13;;;;;;;21.47;19.40;;;19.90;44.80;;;;;;4978907;28;20450;-85
2022/01/14 12:22:00;;;;;;;24.80;22.10;;;19.50;46.00;;;;;;4973122;28;20464;-84
2022/01/14 12:24:32;;;;;;;23.07;20.73;;;18.50;46.90;;;;;;4977270;28;20472;-86
2022/01/14 12:27:18;;;;;;;20.53;18.37;;;18.20;48.10;;;;;;4977134;28;20452;-86
2022/01/14 12:29:47;;;;;;;23.17;20.87;;;17.80;47.70;;;;;;4995665;28;20539;-86
2022/01/14 12:32:17;;;;;;;22.70;20.50;;;18.30;48.90;;;;;;4990657;28;20456;-88
2022/01/14 12:35:00;;;;;;;21.10;19.00;;;19.10;48.80;;;;;;4989083;28;20452;-85
2022/01/14 12:37:30;;;;;;;20.63;18.60;;;21.00;47.30;;;;;;4965261;29;20953;-88
2022/01/14 12:39:57;;;;;;;21.30;19.00;;;21.20;44.30;;;;;;4972633;28;20449;-87
2022/01/14 12:42:25;;;;;;;20.97;18.87;;;20.60;45.10;;;;;;4987473;28;20477;-86
2022/01/14 12:44:53;;;;;;;18.53;16.17;;;20.60;45.50;;;;;;4984163;28;20483;-86
2022/01/14 12:47:24;;;;;;;17.63;16.00;;;19.70;45.90;;;;;;4983185;28;20486;-87
2022/01/14 12:49:51;;;;;;;21.93;19.63;;;17.90;47.50;;;;;;4984420;28;20448;-87
2022/01/14 12:52:29;;;;;;;20.57;18.40;;;16.50;49.80;;;;;;4991826;28;20459;-87
2022/01/14 12:55:03;;;;;;;20.77;18.87;;;15.60;52.00;;;;;;4987614;28;20479;-88
2022/01/14 12:57:30;;;;;;;22.10;20.00;;;14.80;53.80;;;;;;4986016;28;20440;-88
2022/01/14 12:59:57;;;;;;;20.50;18.60;;;14.90;54.60;;;;;;4983859;28;20447;-85
2022/01/14 13:02:26;;;;;;;21.20;19.10;;;14.90;54.70;;;;;;4985486;28;20467;-87
2022/01/14 13:05:00;;;;;;;19.77;17.77;;;15.20;54.90;;;;;;4982944;28;20471;-86
2022/01/14 13:07:28;;;;;;;27.17;19.83;;;15.70;54.10;;;;;;4983802;28;20481;-87
2022/01/14 13:09:55;;;;;;;24.10;19.00;;;16.00;53.50;;;;;;4984779;28;20443;-85
2022/01/14 13:12:27;;;;;;;22.53;20.17;;;15.30;53.60;;;;;;4986469;28;20461;-87
2022/01/14 13:14:58;;;;;;;23.23;18.50;;;14.70;54.70;;;;;;4999059;28;20453;-85
2022/01/14 13:17:27;;;;;;;19.37;17.27;;;14.40;56.10;;;;;;4998837;28;20442;-85
2022/01/14 13:19:58;;;;;;;21.87;18.73;;;14.00;56.80;;;;;;4998198;28;20443;-87
2022/01/14 13:22:25;;;;;;;23.00;20.53;;;13.40;57.90;;;;;;4984595;28;20448;-86
2022/01/14 13:24:54;;;;;;;24.33;20.43;;;12.60;59.20;;;;;;5017920;23;20513;-91
2022/01/14 13:27:25;;;;;;;28.27;20.40;;;12.90;60.10;;;;;;4999901;28;20467;-91
2022/01/14 13:29:54;;;;;;;25.37;20.80;;;12.80;60.20;;;;;;5007843;28;20489;-90
2022/01/14 13:32:23;;;;;;;28.23;22.03;;;13.00;60.70;;;;;;5007314;28;20444;-91
2022/01/14 13:34:53;;;;;;;27.97;22.20;;;12.90;60.00;;;;;;5003968;28;20468;-91
2022/01/14 13:37:22;;;;;;;26.50;22.17;;;13.20;60.80;;;;;;4997377;28;20646;-92
2022/01/14 13:40:10;;;;;;;26.60;21.23;;;13.40;60.00;;;;;;5007187;28;20452;-91
2022/01/14 13:42:41;;;;;;;26.83;22.80;;;14.20;59.50;;;;;;5006406;28;20466;-91